createdAt,value
2018-07-20T00:00:04.286Z,95601.00
2018-07-20T00:00:36.295Z,95599.00
2018-07-20T00:01:08.342Z,95603.00
2018-07-20T00:01:40.375Z,95596.00
2018-07-20T00:02:12.423Z,95595.00
2018-07-20T00:02:44.426Z,95601.00
2018-07-20T00:03:16.459Z,95604.00
2018-07-20T00:03:48.615Z,95596.00
2018-07-20T00:04:20.650Z,95596.00
2018-07-20T00:04:52.659Z,95596.00
2018-07-20T00:05:24.674Z,95597.00
2018-07-20T00:05:56.695Z,95600.00
2018-07-20T00:06:28.745Z,95598.00
2018-07-20T00:07:00.766Z,95600.00
2018-07-20T00:07:32.779Z,95596.00
2018-07-20T00:08:04.846Z,95598.00
2018-07-20T00:08:36.826Z,95594.00
2018-07-20T00:09:08.838Z,95596.00
2018-07-20T00:09:40.850Z,95597.00
2018-07-20T00:10:12.871Z,95596.00
2018-07-20T00:10:44.903Z,95599.00
2018-07-20T00:11:16.912Z,95597.00
2018-07-20T00:11:48.965Z,95596.00
2018-07-20T00:12:20.974Z,95592.00
2018-07-20T00:12:53.007Z,95593.00
2018-07-20T00:13:25.005Z,95596.00
2018-07-20T00:13:57.023Z,95593.00
2018-07-20T00:14:29.038Z,95590.00
2018-07-20T00:15:01.038Z,95589.00
2018-07-20T00:15:33.055Z,95585.00
2018-07-20T00:16:05.074Z,95587.00
2018-07-20T00:16:37.144Z,95590.00
2018-07-20T00:17:09.109Z,95595.00
2018-07-20T00:17:41.114Z,95590.00
2018-07-20T00:18:13.139Z,95592.00
2018-07-20T00:18:45.152Z,95591.00
2018-07-20T00:19:17.159Z,95590.00
2018-07-20T00:19:49.179Z,95584.00
2018-07-20T00:20:21.188Z,95587.00
2018-07-20T00:20:53.202Z,95582.00
2018-07-20T00:21:25.234Z,95584.00
2018-07-20T00:21:57.244Z,95585.00
2018-07-20T00:22:29.263Z,95588.00
2018-07-20T00:23:01.268Z,95582.00
2018-07-20T00:23:33.279Z,95585.00
2018-07-20T00:24:05.290Z,95583.00
2018-07-20T00:24:37.333Z,95580.00
2018-07-20T00:25:09.343Z,95582.00
2018-07-20T00:25:41.366Z,95580.00
2018-07-20T00:26:13.376Z,95581.00
2018-07-20T00:26:45.385Z,95578.00
2018-07-20T00:27:17.410Z,95583.00
2018-07-20T00:27:49.797Z,95579.00
2018-07-20T00:28:21.922Z,95576.00
2018-07-20T00:28:54.442Z,95578.00
2018-07-20T00:29:26.327Z,95575.00
2018-07-20T00:29:58.356Z,95574.00
2018-07-20T00:30:30.389Z,95572.00
2018-07-20T00:31:02.388Z,95573.00
2018-07-20T00:31:34.396Z,95572.00
2018-07-20T00:32:06.404Z,95567.00
2018-07-20T00:32:38.422Z,95570.00
2018-07-20T00:33:10.447Z,95571.00
2018-07-20T00:33:42.458Z,95570.00
2018-07-20T00:34:14.471Z,95568.00
2018-07-20T00:34:46.486Z,95570.00
2018-07-20T00:35:18.494Z,95569.00
2018-07-20T00:35:50.523Z,95573.00
2018-07-20T00:36:22.537Z,95571.00
2018-07-20T00:36:54.629Z,95570.00
2018-07-20T00:37:26.631Z,95571.00
2018-07-20T00:37:58.666Z,95569.00
2018-07-20T00:38:30.675Z,95565.00
2018-07-20T00:39:02.682Z,95568.00
2018-07-20T00:39:34.700Z,95569.00
2018-07-20T00:40:06.707Z,95571.00
2018-07-20T00:40:38.790Z,95570.00
2018-07-20T00:41:10.844Z,95565.00
2018-07-20T00:41:42.842Z,95568.00
2018-07-20T00:42:14.855Z,95569.00
2018-07-20T00:42:46.874Z,95564.00
2018-07-20T00:43:18.876Z,95565.00
2018-07-20T00:43:50.917Z,95568.00
2018-07-20T00:44:22.933Z,95568.00
2018-07-20T00:44:54.962Z,95563.00
2018-07-20T00:45:27.017Z,95566.00
2018-07-20T00:45:59.052Z,95564.00
2018-07-20T00:46:31.067Z,95568.00
2018-07-20T00:47:03.122Z,95568.00
2018-07-20T00:47:35.143Z,95561.00
2018-07-20T00:48:07.157Z,95564.00
2018-07-20T00:48:39.170Z,95564.00
2018-07-20T00:49:11.195Z,95569.00
2018-07-20T00:49:43.211Z,95565.00
2018-07-20T00:50:15.216Z,95562.00
2018-07-20T00:50:47.243Z,95564.00
2018-07-20T00:51:19.262Z,95569.00
2018-07-20T00:51:51.266Z,95566.00
2018-07-20T00:52:23.285Z,95561.00
2018-07-20T00:52:55.294Z,95562.00
2018-07-20T00:53:27.309Z,95563.00
2018-07-20T00:53:59.332Z,95562.00
2018-07-20T00:54:31.342Z,95564.00
2018-07-20T00:55:03.352Z,95563.00
2018-07-20T00:55:35.374Z,95564.00
2018-07-20T00:56:07.391Z,95565.00
2018-07-20T00:56:39.408Z,95561.00
2018-07-20T00:57:11.453Z,95563.00
2018-07-20T00:57:43.524Z,95569.00
2018-07-20T00:58:15.495Z,95558.00
2018-07-20T00:58:47.511Z,95563.00
2018-07-20T00:59:19.520Z,95564.00
2018-07-20T00:59:51.530Z,95564.00
2018-07-20T01:00:23.555Z,95561.00
2018-07-20T01:00:55.565Z,95562.00
2018-07-20T01:01:27.593Z,95559.00
2018-07-20T01:01:59.617Z,95563.00
2018-07-20T01:02:31.661Z,95561.00
2018-07-20T01:03:03.675Z,95563.00
2018-07-20T01:03:35.797Z,95561.00
2018-07-20T01:04:07.805Z,95560.00
2018-07-20T01:04:39.819Z,95556.00
2018-07-20T01:05:11.831Z,95559.00
2018-07-20T01:05:43.854Z,95561.00
2018-07-20T01:06:15.880Z,95561.00
2018-07-20T01:06:47.918Z,95563.00
2018-07-20T01:07:19.946Z,95561.00
2018-07-20T01:07:51.954Z,95563.00
2018-07-20T01:08:23.961Z,95559.00
2018-07-20T01:08:55.983Z,95560.00
2018-07-20T01:09:28.003Z,95556.00
2018-07-20T01:10:00.010Z,95558.00
2018-07-20T01:10:32.067Z,95560.00
2018-07-20T01:11:04.081Z,95558.00
2018-07-20T01:11:36.098Z,95557.00
2018-07-20T01:12:08.108Z,95557.00
2018-07-20T01:12:40.116Z,95555.00
2018-07-20T01:13:12.128Z,95555.00
2018-07-20T01:13:44.145Z,95557.00
2018-07-20T01:14:16.149Z,95556.00
2018-07-20T01:14:48.175Z,95562.00
2018-07-20T01:15:20.177Z,95557.00
2018-07-20T01:15:52.209Z,95558.00
2018-07-20T01:16:24.223Z,95556.00
2018-07-20T01:16:56.234Z,95556.00
2018-07-20T01:17:28.250Z,95558.00
2018-07-20T01:18:00.400Z,95557.00
2018-07-20T01:18:32.414Z,95560.00
2018-07-20T01:19:04.439Z,95559.00
2018-07-20T01:19:36.442Z,95556.00
2018-07-20T01:20:08.446Z,95556.00
2018-07-20T01:20:40.454Z,95558.00
2018-07-20T01:21:12.466Z,95557.00
2018-07-20T01:21:44.491Z,95557.00
2018-07-20T01:22:16.518Z,95562.00
2018-07-20T01:22:48.524Z,95557.00
2018-07-20T01:23:20.519Z,95557.00
2018-07-20T01:23:52.534Z,95559.00
2018-07-20T01:24:24.555Z,95560.00
2018-07-20T01:24:56.563Z,95559.00
2018-07-20T01:25:28.658Z,95558.00
2018-07-20T01:26:00.631Z,95559.00
2018-07-20T01:26:32.657Z,95556.00
2018-07-20T01:27:04.669Z,95555.00
2018-07-20T01:27:36.711Z,95555.00
2018-07-20T01:28:08.717Z,95557.00
2018-07-20T01:28:40.739Z,95560.00
2018-07-20T01:29:12.746Z,95552.00
2018-07-20T01:29:44.767Z,95561.00
2018-07-20T01:30:16.787Z,95560.00
2018-07-20T01:30:48.806Z,95555.00
2018-07-20T01:31:20.823Z,95555.00
2018-07-20T01:31:52.862Z,95554.00
2018-07-20T01:32:24.872Z,95555.00
2018-07-20T01:32:56.910Z,95560.00
2018-07-20T01:33:28.978Z,95553.00
2018-07-20T01:34:00.994Z,95555.00
2018-07-20T01:34:33.015Z,95555.00
2018-07-20T01:35:05.039Z,95553.00
2018-07-20T01:35:37.069Z,95555.00
2018-07-20T01:36:09.075Z,95556.00
2018-07-20T01:36:41.486Z,95555.00
2018-07-20T01:37:13.369Z,95554.00
2018-07-20T01:37:45.370Z,95555.00
2018-07-20T01:38:17.389Z,95551.00
2018-07-20T01:38:49.408Z,95551.00
2018-07-20T01:39:21.433Z,95548.00
2018-07-20T01:39:53.455Z,95551.00
2018-07-20T01:40:25.850Z,95552.00
2018-07-20T01:40:57.767Z,95550.00
2018-07-20T01:41:29.775Z,95553.00
2018-07-20T01:42:01.856Z,95550.00
2018-07-20T01:42:33.865Z,95551.00
2018-07-20T01:43:05.926Z,95548.00
2018-07-20T01:43:37.941Z,95551.00
2018-07-20T01:44:09.952Z,95550.00
2018-07-20T01:44:41.967Z,95550.00
2018-07-20T01:45:13.977Z,95549.00
2018-07-20T01:45:45.982Z,95549.00
2018-07-20T01:46:17.991Z,95551.00
2018-07-20T01:46:49.994Z,95545.00
2018-07-20T01:47:22.007Z,95545.00
2018-07-20T01:47:54.036Z,95548.00
2018-07-20T01:48:26.071Z,95550.00
2018-07-20T01:48:58.085Z,95550.00
2018-07-20T01:49:30.092Z,95551.00
2018-07-20T01:50:02.105Z,95553.00
2018-07-20T01:50:34.101Z,95550.00
2018-07-20T01:51:06.210Z,95549.00
2018-07-20T01:51:38.219Z,95544.00
2018-07-20T01:52:10.235Z,95551.00
2018-07-20T01:52:42.258Z,95549.00
2018-07-20T01:53:14.298Z,95549.00
2018-07-20T01:53:46.302Z,95544.00
2018-07-20T01:54:18.345Z,95546.00
2018-07-20T01:54:50.361Z,95541.00
2018-07-20T01:55:22.378Z,95547.00
2018-07-20T01:55:54.387Z,95545.00
2018-07-20T01:56:26.398Z,95546.00
2018-07-20T01:56:58.414Z,95542.00
2018-07-20T01:57:30.425Z,95545.00
2018-07-20T01:58:02.443Z,95543.00
2018-07-20T01:58:34.473Z,95543.00
2018-07-20T01:59:06.488Z,95542.00
2018-07-20T01:59:38.494Z,95543.00
2018-07-20T02:00:10.513Z,95544.00
2018-07-20T02:00:42.960Z,95540.00
2018-07-20T02:01:14.853Z,95538.00
2018-07-20T02:01:46.874Z,95544.00
2018-07-20T02:02:18.901Z,95542.00
2018-07-20T02:02:50.909Z,95544.00
2018-07-20T02:03:22.918Z,95542.00
2018-07-20T02:03:54.942Z,95545.00
2018-07-20T02:04:26.951Z,95543.00
2018-07-20T02:04:58.974Z,95539.00
2018-07-20T02:05:30.983Z,95544.00
2018-07-20T02:06:02.995Z,95539.00
2018-07-20T02:06:35.042Z,95533.00
2018-07-20T02:07:07.026Z,95535.00
2018-07-20T02:07:39.053Z,95534.00
2018-07-20T02:08:11.063Z,95535.00
2018-07-20T02:08:43.078Z,95535.00
2018-07-20T02:09:15.099Z,95535.00
2018-07-20T02:09:47.106Z,95534.00
2018-07-20T02:10:19.125Z,95535.00
2018-07-20T02:10:51.153Z,95532.00
2018-07-20T02:11:23.152Z,95535.00
2018-07-20T02:11:55.171Z,95534.00
2018-07-20T02:12:27.188Z,95536.00
2018-07-20T02:12:59.200Z,95531.00
2018-07-20T02:13:31.231Z,95533.00
2018-07-20T02:14:03.244Z,95536.00
2018-07-20T02:14:35.290Z,95532.00
2018-07-20T02:15:07.321Z,95533.00
2018-07-20T02:15:39.338Z,95530.00
2018-07-20T02:16:11.357Z,95532.00
2018-07-20T02:16:43.376Z,95529.00
2018-07-20T02:17:15.391Z,95531.00
2018-07-20T02:17:47.401Z,95528.00
2018-07-20T02:18:19.407Z,95527.00
2018-07-20T02:18:51.433Z,95528.00
2018-07-20T02:19:23.466Z,95526.00
2018-07-20T02:19:55.511Z,95529.00
2018-07-20T02:20:27.521Z,95531.00
2018-07-20T02:20:59.550Z,95522.00
2018-07-20T02:21:31.605Z,95527.00
2018-07-20T02:22:03.568Z,95527.00
2018-07-20T02:22:35.588Z,95526.00
2018-07-20T02:23:07.602Z,95525.00
2018-07-20T02:23:39.625Z,95528.00
2018-07-20T02:24:11.641Z,95528.00
2018-07-20T02:24:43.668Z,95525.00
2018-07-20T02:25:15.675Z,95521.00
2018-07-20T02:25:47.705Z,95523.00
2018-07-20T02:26:19.722Z,95524.00
2018-07-20T02:26:51.735Z,95523.00
2018-07-20T02:27:23.782Z,95527.00
2018-07-20T02:27:55.814Z,95524.00
2018-07-20T02:28:27.821Z,95523.00
2018-07-20T02:28:59.830Z,95523.00
2018-07-20T02:29:31.892Z,95522.00
2018-07-20T02:30:03.843Z,95527.00
2018-07-20T02:30:35.881Z,95520.00
2018-07-20T02:31:07.886Z,95520.00
2018-07-20T02:31:39.904Z,95521.00
2018-07-20T02:32:11.912Z,95521.00
2018-07-20T02:32:43.930Z,95519.00
2018-07-20T02:33:15.943Z,95520.00
2018-07-20T02:33:47.971Z,95522.00
2018-07-20T02:34:19.990Z,95522.00
2018-07-20T02:34:51.999Z,95522.00
2018-07-20T02:35:24.029Z,95523.00
2018-07-20T02:35:56.043Z,95519.00
2018-07-20T02:36:28.051Z,95515.00
2018-07-20T02:37:00.071Z,95517.00
2018-07-20T02:37:32.077Z,95519.00
2018-07-20T02:38:04.157Z,95519.00
2018-07-20T02:38:36.164Z,95515.00
2018-07-20T02:39:08.179Z,95518.00
2018-07-20T02:39:40.229Z,95518.00
2018-07-20T02:40:12.243Z,95518.00
2018-07-20T02:40:44.252Z,95520.00
2018-07-20T02:41:16.266Z,95520.00
2018-07-20T02:41:48.302Z,95521.00
2018-07-20T02:42:20.326Z,95524.00
2018-07-20T02:42:52.334Z,95522.00
2018-07-20T02:43:24.360Z,95518.00
2018-07-20T02:43:56.542Z,95519.00
2018-07-20T02:44:28.571Z,95518.00
2018-07-20T02:45:00.580Z,95523.00
2018-07-20T02:45:32.769Z,95519.00
2018-07-20T02:46:04.906Z,95519.00
2018-07-20T02:46:37.266Z,95522.00
2018-07-20T02:47:09.265Z,95519.00
2018-07-20T02:47:41.283Z,95521.00
2018-07-20T02:48:13.295Z,95518.00
2018-07-20T02:48:45.309Z,95518.00
2018-07-20T02:49:17.358Z,95520.00
2018-07-20T02:49:49.402Z,95521.00
2018-07-20T02:50:21.784Z,95522.00
2018-07-20T02:50:53.714Z,95522.00
2018-07-20T02:51:25.729Z,95522.00
2018-07-20T02:51:57.756Z,95526.00
2018-07-20T02:52:29.763Z,95518.00
2018-07-20T02:53:01.781Z,95519.00
2018-07-20T02:53:33.813Z,95517.00
2018-07-20T02:54:05.853Z,95517.00
2018-07-20T02:54:37.868Z,95520.00
2018-07-20T02:55:09.885Z,95517.00
2018-07-20T02:55:41.902Z,95520.00
2018-07-20T02:56:13.921Z,95517.00
2018-07-20T02:56:45.969Z,95517.00
2018-07-20T02:57:18.006Z,95517.00
2018-07-20T02:57:50.033Z,95522.00
2018-07-20T02:58:22.048Z,95518.00
2018-07-20T02:58:54.070Z,95512.00
2018-07-20T02:59:26.089Z,95513.00
2018-07-20T02:59:58.101Z,95515.00
2018-07-20T03:00:30.119Z,95517.00
2018-07-20T03:01:02.140Z,95515.00
2018-07-20T03:01:34.167Z,95515.00
2018-07-20T03:02:06.185Z,95517.00
2018-07-20T03:02:38.196Z,95514.00
2018-07-20T03:03:10.215Z,95518.00
2018-07-20T03:03:42.245Z,95519.00
2018-07-20T03:04:14.262Z,95517.00
2018-07-20T03:04:46.295Z,95515.00
2018-07-20T03:05:18.316Z,95514.00
2018-07-20T03:05:50.323Z,95517.00
2018-07-20T03:06:22.336Z,95521.00
2018-07-20T03:06:54.352Z,95515.00
2018-07-20T03:07:26.365Z,95516.00
2018-07-20T03:07:58.388Z,95519.00
2018-07-20T03:08:30.396Z,95517.00
2018-07-20T03:09:02.468Z,95519.00
2018-07-20T03:09:34.435Z,95518.00
2018-07-20T03:10:06.444Z,95520.00
2018-07-20T03:10:38.449Z,95514.00
2018-07-20T03:11:10.463Z,95519.00
2018-07-20T03:11:42.485Z,95520.00
2018-07-20T03:12:14.497Z,95517.00
2018-07-20T03:12:46.508Z,95516.00
2018-07-20T03:13:18.520Z,95521.00
2018-07-20T03:13:50.545Z,95519.00
2018-07-20T03:14:22.550Z,95519.00
2018-07-20T03:14:54.551Z,95522.00
2018-07-20T03:15:26.566Z,95519.00
2018-07-20T03:15:58.570Z,95520.00
2018-07-20T03:16:30.588Z,95523.00
2018-07-20T03:17:02.594Z,95519.00
2018-07-20T03:17:34.611Z,95520.00
2018-07-20T03:18:06.628Z,95522.00
2018-07-20T03:18:38.640Z,95517.00
2018-07-20T03:19:10.919Z,95517.00
2018-07-20T03:19:42.944Z,95518.00
2018-07-20T03:20:14.938Z,95517.00
2018-07-20T03:20:46.959Z,95515.00
2018-07-20T03:21:18.964Z,95516.00
2018-07-20T03:21:50.980Z,95518.00
2018-07-20T03:22:22.994Z,95513.00
2018-07-20T03:22:55.092Z,95516.00
2018-07-20T03:23:27.111Z,95516.00
2018-07-20T03:23:59.110Z,95515.00
2018-07-20T03:24:31.131Z,95514.00
2018-07-20T03:25:03.164Z,95517.00
2018-07-20T03:25:35.187Z,95515.00
2018-07-20T03:26:07.204Z,95515.00
2018-07-20T03:26:39.251Z,95520.00
2018-07-20T03:27:11.250Z,95516.00
2018-07-20T03:27:43.253Z,95518.00
2018-07-20T03:28:15.259Z,95515.00
2018-07-20T03:28:47.291Z,95515.00
2018-07-20T03:29:19.290Z,95514.00
2018-07-20T03:29:51.314Z,95521.00
2018-07-20T03:30:23.335Z,95516.00
2018-07-20T03:30:55.362Z,95520.00
2018-07-20T03:31:27.361Z,95517.00
2018-07-20T03:31:59.392Z,95515.00
2018-07-20T03:32:31.423Z,95519.00
2018-07-20T03:33:03.426Z,95515.00
2018-07-20T03:33:35.444Z,95513.00
2018-07-20T03:34:07.461Z,95516.00
2018-07-20T03:34:39.470Z,95517.00
2018-07-20T03:35:11.858Z,95513.00
2018-07-20T03:35:43.741Z,95514.00
2018-07-20T03:36:15.750Z,95517.00
2018-07-20T03:36:47.759Z,95518.00
2018-07-20T03:37:20.178Z,95510.00
2018-07-20T03:37:52.042Z,95511.00
2018-07-20T03:38:24.054Z,95511.00
2018-07-20T03:38:56.062Z,95511.00
2018-07-20T03:39:28.087Z,95510.00
2018-07-20T03:40:00.098Z,95513.00
2018-07-20T03:40:32.114Z,95512.00
2018-07-20T03:41:04.123Z,95509.00
2018-07-20T03:41:36.142Z,95505.00
2018-07-20T03:42:08.224Z,95506.00
2018-07-20T03:42:40.230Z,95509.00
2018-07-20T03:43:12.246Z,95512.00
2018-07-20T03:43:44.283Z,95511.00
2018-07-20T03:44:16.368Z,95506.00
2018-07-20T03:44:48.345Z,95511.00
2018-07-20T03:45:20.349Z,95510.00
2018-07-20T03:45:52.370Z,95503.00
2018-07-20T03:46:24.379Z,95510.00
2018-07-20T03:46:56.390Z,95507.00
2018-07-20T03:47:28.472Z,95507.00
2018-07-20T03:48:00.448Z,95511.00
2018-07-20T03:48:32.522Z,95511.00
2018-07-20T03:49:04.626Z,95509.00
2018-07-20T03:49:36.562Z,95510.00
2018-07-20T03:50:08.567Z,95513.00
2018-07-20T03:50:40.585Z,95514.00
2018-07-20T03:51:12.586Z,95514.00
2018-07-20T03:51:44.603Z,95515.00
2018-07-20T03:52:16.698Z,95516.00
2018-07-20T03:52:48.636Z,95511.00
2018-07-20T03:53:20.658Z,95512.00
2018-07-20T03:53:52.662Z,95512.00
2018-07-20T03:54:24.740Z,95513.00
2018-07-20T03:54:56.749Z,95513.00
2018-07-20T03:55:28.767Z,95510.00
2018-07-20T03:56:00.801Z,95513.00
2018-07-20T03:56:32.800Z,95511.00
2018-07-20T03:57:04.815Z,95513.00
2018-07-20T03:57:36.825Z,95516.00
2018-07-20T03:58:08.835Z,95515.00
2018-07-20T03:58:40.849Z,95513.00
2018-07-20T03:59:12.846Z,95521.00
2018-07-20T03:59:44.870Z,95514.00
2018-07-20T04:00:16.878Z,95512.00
2018-07-20T04:00:48.890Z,95507.00
2018-07-20T04:01:20.901Z,95516.00
2018-07-20T04:01:52.910Z,95511.00
2018-07-20T04:02:24.938Z,95512.00
2018-07-20T04:02:56.934Z,95510.00
2018-07-20T04:03:28.970Z,95508.00
2018-07-20T04:04:00.995Z,95511.00
2018-07-20T04:04:33.000Z,95509.00
2018-07-20T04:05:05.012Z,95509.00
2018-07-20T04:05:37.025Z,95513.00
2018-07-20T04:06:09.047Z,95510.00
2018-07-20T04:06:41.060Z,95511.00
2018-07-20T04:07:13.076Z,95513.00
2018-07-20T04:07:45.090Z,95511.00
2018-07-20T04:08:17.089Z,95507.00
2018-07-20T04:08:49.106Z,95510.00
2018-07-20T04:09:21.127Z,95512.00
2018-07-20T04:09:53.125Z,95504.00
2018-07-20T04:10:25.141Z,95507.00
2018-07-20T04:10:57.165Z,95507.00
2018-07-20T04:11:29.182Z,95503.00
2018-07-20T04:12:01.211Z,95505.00
2018-07-20T04:12:33.215Z,95507.00
2018-07-20T04:13:05.230Z,95503.00
2018-07-20T04:13:37.262Z,95505.00
2018-07-20T04:14:09.286Z,95507.00
2018-07-20T04:14:41.295Z,95502.00
2018-07-20T04:15:13.319Z,95502.00
2018-07-20T04:15:45.318Z,95505.00
2018-07-20T04:16:17.339Z,95506.00
2018-07-20T04:16:49.344Z,95500.00
2018-07-20T04:17:21.353Z,95508.00
2018-07-20T04:17:53.364Z,95505.00
2018-07-20T04:18:25.373Z,95509.00
2018-07-20T04:18:57.400Z,95507.00
2018-07-20T04:19:29.418Z,95510.00
2018-07-20T04:20:01.425Z,95507.00
2018-07-20T04:20:33.437Z,95507.00
2018-07-20T04:21:05.454Z,95504.00
2018-07-20T04:21:37.464Z,95510.00
2018-07-20T04:22:09.462Z,95508.00
2018-07-20T04:22:41.486Z,95508.00
2018-07-20T04:23:13.495Z,95507.00
2018-07-20T04:23:45.508Z,95504.00
2018-07-20T04:24:17.521Z,95507.00
2018-07-20T04:24:49.534Z,95505.00
2018-07-20T04:25:21.548Z,95502.00
2018-07-20T04:25:53.575Z,95504.00
2018-07-20T04:26:25.574Z,95504.00
2018-07-20T04:26:57.604Z,95504.00
2018-07-20T04:27:29.635Z,95505.00
2018-07-20T04:28:01.660Z,95502.00
2018-07-20T04:28:33.671Z,95504.00
2018-07-20T04:29:05.675Z,95504.00
2018-07-20T04:29:37.691Z,95506.00
2018-07-20T04:30:09.733Z,95505.00
2018-07-20T04:30:41.742Z,95503.00
2018-07-20T04:31:14.001Z,95497.00
2018-07-20T04:31:46.035Z,95502.00
2018-07-20T04:32:18.074Z,95502.00
2018-07-20T04:32:50.086Z,95503.00
2018-07-20T04:33:22.107Z,95502.00
2018-07-20T04:33:54.127Z,95502.00
2018-07-20T04:34:26.150Z,95504.00
2018-07-20T04:34:58.440Z,95504.00
2018-07-20T04:35:30.519Z,95500.00
2018-07-20T04:36:02.536Z,95503.00
2018-07-20T04:36:34.545Z,95500.00
2018-07-20T04:37:06.556Z,95497.00
2018-07-20T04:37:38.559Z,95503.00
2018-07-20T04:38:10.580Z,95502.00
2018-07-20T04:38:42.570Z,95503.00
2018-07-20T04:39:14.622Z,95504.00
2018-07-20T04:39:46.617Z,95503.00
2018-07-20T04:40:18.633Z,95500.00
2018-07-20T04:40:50.712Z,95500.00
2018-07-20T04:41:22.712Z,95502.00
2018-07-20T04:41:54.719Z,95500.00
2018-07-20T04:42:26.740Z,95503.00
2018-07-20T04:42:58.754Z,95505.00
2018-07-20T04:43:30.758Z,95505.00
2018-07-20T04:44:02.771Z,95505.00
2018-07-20T04:44:34.775Z,95506.00
2018-07-20T04:45:06.825Z,95507.00
2018-07-20T04:45:38.838Z,95509.00
2018-07-20T04:46:10.900Z,95508.00
2018-07-20T04:46:42.908Z,95506.00
2018-07-20T04:47:14.935Z,95505.00
2018-07-20T04:47:46.959Z,95509.00
2018-07-20T04:48:18.962Z,95507.00
2018-07-20T04:48:50.977Z,95507.00
2018-07-20T04:49:23.038Z,95507.00
2018-07-20T04:49:55.133Z,95507.00
2018-07-20T04:50:27.091Z,95509.00
2018-07-20T04:50:59.102Z,95506.00
2018-07-20T04:51:31.181Z,95506.00
2018-07-20T04:52:03.156Z,95506.00
2018-07-20T04:52:35.204Z,95508.00
2018-07-20T04:53:07.219Z,95510.00
2018-07-20T04:53:39.235Z,95511.00
2018-07-20T04:54:11.342Z,95510.00
2018-07-20T04:54:43.322Z,95506.00
2018-07-20T04:55:15.370Z,95509.00
2018-07-20T04:55:47.634Z,95509.00
2018-07-20T04:56:19.718Z,95507.00
2018-07-20T04:56:51.723Z,95508.00
2018-07-20T04:57:23.732Z,95509.00
2018-07-20T04:57:55.746Z,95509.00
2018-07-20T04:58:27.755Z,95507.00
2018-07-20T04:59:00.161Z,95507.00
2018-07-20T04:59:32.059Z,95507.00
2018-07-20T05:00:04.056Z,95509.00
2018-07-20T05:00:36.092Z,95507.00
2018-07-20T05:01:08.125Z,95510.00
2018-07-20T05:01:40.145Z,95511.00
2018-07-20T05:02:12.155Z,95507.00
2018-07-20T05:02:44.166Z,95507.00
2018-07-20T05:03:16.174Z,95501.00
2018-07-20T05:03:48.234Z,95504.00
2018-07-20T05:04:20.196Z,95503.00
2018-07-20T05:04:52.215Z,95501.00
2018-07-20T05:05:24.249Z,95498.00
2018-07-20T05:05:56.327Z,95500.00
2018-07-20T05:06:28.273Z,95500.00
2018-07-20T05:07:00.300Z,95499.00
2018-07-20T05:07:32.337Z,95498.00
2018-07-20T05:08:04.368Z,95506.00
2018-07-20T05:08:36.375Z,95509.00
2018-07-20T05:09:08.399Z,95503.00
2018-07-20T05:09:40.420Z,95502.00
2018-07-20T05:10:12.430Z,95501.00
2018-07-20T05:10:44.442Z,95503.00
2018-07-20T05:11:16.459Z,95502.00
2018-07-20T05:11:48.467Z,95501.00
2018-07-20T05:12:20.477Z,95498.00
2018-07-20T05:12:52.506Z,95500.00
2018-07-20T05:13:24.516Z,95501.00
2018-07-20T05:13:56.525Z,95501.00
2018-07-20T05:14:28.536Z,95503.00
2018-07-20T05:15:00.551Z,95496.00
2018-07-20T05:15:32.564Z,95497.00
2018-07-20T05:16:04.570Z,95499.00
2018-07-20T05:16:36.582Z,95496.00
2018-07-20T05:17:08.605Z,95496.00
2018-07-20T05:17:40.622Z,95496.00
2018-07-20T05:18:12.638Z,95495.00
2018-07-20T05:18:44.649Z,95495.00
2018-07-20T05:19:16.661Z,95495.00
2018-07-20T05:19:48.685Z,95496.00
2018-07-20T05:20:20.686Z,95498.00
2018-07-20T05:20:52.706Z,95494.00
2018-07-20T05:21:24.725Z,95493.00
2018-07-20T05:21:56.732Z,95497.00
2018-07-20T05:22:28.764Z,95495.00
2018-07-20T05:23:00.789Z,95493.00
2018-07-20T05:23:32.791Z,95492.00
2018-07-20T05:24:04.830Z,95498.00
2018-07-20T05:24:36.826Z,95493.00
2018-07-20T05:25:08.839Z,95497.00
2018-07-20T05:25:40.869Z,95494.00
2018-07-20T05:26:12.879Z,95491.00
2018-07-20T05:26:44.893Z,95494.00
2018-07-20T05:27:16.897Z,95490.00
2018-07-20T05:27:48.920Z,95490.00
2018-07-20T05:28:20.913Z,95488.00
2018-07-20T05:28:52.936Z,95495.00
2018-07-20T05:29:24.982Z,95488.00
2018-07-20T05:29:56.979Z,95486.00
2018-07-20T05:30:28.982Z,95493.00
2018-07-20T05:31:01.070Z,95488.00
2018-07-20T05:31:33.011Z,95491.00
2018-07-20T05:32:05.026Z,95492.00
2018-07-20T05:32:37.063Z,95489.00
2018-07-20T05:33:09.077Z,95489.00
2018-07-20T05:33:41.082Z,95493.00
2018-07-20T05:34:13.145Z,95493.00
2018-07-20T05:34:45.161Z,95488.00
2018-07-20T05:35:17.173Z,95490.00
2018-07-20T05:35:49.192Z,95491.00
2018-07-20T05:36:21.192Z,95490.00
2018-07-20T05:36:53.190Z,95493.00
2018-07-20T05:37:25.203Z,95492.00
2018-07-20T05:37:57.274Z,95492.00
2018-07-20T05:38:29.294Z,95493.00
2018-07-20T05:39:01.326Z,95492.00
2018-07-20T05:39:33.738Z,95490.00
2018-07-20T05:40:05.672Z,95489.00
2018-07-20T05:40:37.684Z,95488.00
2018-07-20T05:41:09.690Z,95490.00
2018-07-20T05:41:41.704Z,95488.00
2018-07-20T05:42:13.747Z,95493.00
2018-07-20T05:42:46.159Z,95492.00
2018-07-20T05:43:18.058Z,95487.00
2018-07-20T05:43:50.095Z,95485.00
2018-07-20T05:44:22.343Z,95487.00
2018-07-20T05:44:54.326Z,95488.00
2018-07-20T05:45:26.348Z,95489.00
2018-07-20T05:45:58.365Z,95487.00
2018-07-20T05:46:30.379Z,95491.00
2018-07-20T05:47:02.392Z,95492.00
2018-07-20T05:47:34.398Z,95488.00
2018-07-20T05:48:06.412Z,95491.00
2018-07-20T05:48:38.451Z,95489.00
2018-07-20T05:49:10.907Z,95491.00
2018-07-20T05:49:42.799Z,95489.00
2018-07-20T05:50:14.824Z,95487.00
2018-07-20T05:50:47.209Z,95487.00
2018-07-20T05:51:19.108Z,95488.00
2018-07-20T05:51:51.119Z,95488.00
2018-07-20T05:52:23.133Z,95488.00
2018-07-20T05:52:55.163Z,95493.00
2018-07-20T05:53:27.209Z,95486.00
2018-07-20T05:53:59.193Z,95487.00
2018-07-20T05:54:31.198Z,95492.00
2018-07-20T05:55:03.211Z,95489.00
2018-07-20T05:55:35.234Z,95488.00
2018-07-20T05:56:07.260Z,95484.00
2018-07-20T05:56:39.266Z,95487.00
2018-07-20T05:57:11.283Z,95486.00
2018-07-20T05:57:43.289Z,95486.00
2018-07-20T05:58:15.306Z,95485.00
2018-07-20T05:58:47.314Z,95482.00
2018-07-20T05:59:19.330Z,95482.00
2018-07-20T05:59:51.338Z,95482.00
2018-07-20T06:00:23.359Z,95482.00
2018-07-20T06:00:55.381Z,95484.00
2018-07-20T06:01:27.414Z,95480.00
2018-07-20T06:01:59.486Z,95484.00
2018-07-20T06:02:31.506Z,95484.00
2018-07-20T06:03:03.535Z,95485.00
2018-07-20T06:03:35.542Z,95478.00
2018-07-20T06:04:07.589Z,95484.00
2018-07-20T06:04:39.592Z,95486.00
2018-07-20T06:05:11.599Z,95485.00
2018-07-20T06:05:43.669Z,95486.00
2018-07-20T06:06:15.622Z,95484.00
2018-07-20T06:06:47.662Z,95492.00
2018-07-20T06:07:19.659Z,95484.00
2018-07-20T06:07:51.694Z,95482.00
2018-07-20T06:08:23.697Z,95482.00
2018-07-20T06:08:55.735Z,95483.00
2018-07-20T06:09:27.726Z,95481.00
2018-07-20T06:09:59.845Z,95481.00
2018-07-20T06:10:31.858Z,95483.00
2018-07-20T06:11:03.926Z,95487.00
2018-07-20T06:11:35.932Z,95487.00
2018-07-20T06:12:07.950Z,95485.00
2018-07-20T06:12:39.963Z,95481.00
2018-07-20T06:13:11.967Z,95488.00
2018-07-20T06:13:43.989Z,95479.00
2018-07-20T06:14:16.068Z,95479.00
2018-07-20T06:14:47.997Z,95481.00
2018-07-20T06:15:20.009Z,95482.00
2018-07-20T06:15:52.052Z,95482.00